METAR Data
IDs: Format: Raw Decoded Include TAF

Data at: 0929 UTC 10 Dec 2022

METAR for:KS52 (Methow Valley State, WA, US)
Text:KS52 100915Z AUTO 00000KT 3/4SM +SN BR OVC006 M08/M09 A2966 RMK AO2 P0002 T10761087
Temperature: -7.6°C ( 18°F)
Dewpoint: -8.7°C ( 16°F) [RH = 92%]
Pressure (altimeter):29.66 inches Hg (1004.5 mb)
Winds:calm
Visibility: 0.75 sm ( 1.21 km)
Ceiling:600 feet AGL
Clouds: overcast cloud deck at 600 feet AGL
Weather:+SN BR (heavy snow, mist)
QC Flag:automated observation with no human augmentation